• Join FlightAware (Why Join?)
  • Login
  • US Flag 
03:40PM EDT


 

Airport Tracker/Info


-or-


 

Live Flight TrackerFlight Track Log ✈ N812NW ✈ 11-Apr-2013 ✈ EHAM / AMS - KDTW

Flight Track Log - Related Links

Times and Time Zones

All times are in EDT time to prevent confusion due to time zone crossing. See the N812NW flight status page for this flight to view local times or setup timezone preferences in your user account.

Time Position Orientation Groundspeed Altitude Reporting Facility
EDT Latitude Longitude Course Direction KTS MPH feet Rate Location/Type
02:22AM 52.3640 4.7110 North 164 189 1,100  Level FlightAware
02:22AM 52.3800 4.7130 North 176 203 1,900 1,800 Climbing FlightAware
02:23AM 52.4120 4.7170 North 182 209 2,800 1,500 Climbing FlightAware
02:24AM 52.4410 4.7030 344° North 184 212 3,800 1,200 Climbing FlightAware
02:24AM 52.4590 4.6740 316° Northwest 212 244 4,100 840 Climbing FlightAware
02:25AM 52.4830 4.6340 315° West 251 289 4,600 1,020 Climbing FlightAware
02:25AM 52.4940 4.6150 314° West 263 303 4,900 2,100 Climbing FlightAware
02:25AM 52.5210 4.5740 317° Northwest 267 307 6,200 2,700 Climbing FlightAware
02:26AM 52.5550 4.5410 329° Northwest 272 313 7,600 2,520 Climbing FlightAware
02:26AM 52.5660 4.5320 334° Northwest 274 315 7,900 -1,080 Climbing FlightAware
02:26AM 52.5870 4.5114 334° Northwest 1 1 7,100 2,160 Descending FlightAware UK
02:26AM 52.5990 4.5000 334° Northwest 279 321 9,000 3,900 Climbing FlightAware
02:27AM 52.6440 4.4580 330° Northwest 288 331 10,500 1,440 Climbing FlightAware
02:28AM 52.7000 4.4050 330° Northwest 332 382 11,100 720 Climbing FlightAware
02:29AM 52.7550 4.3410 325° Northwest 362 417 11,600 1,200 Climbing FlightAware
02:29AM 52.7850 4.2530 299° West 370 426 12,700 600 Climbing FlightAware
02:30AM 52.8271 4.1690 299° West 1 1 12,400 2,040 Descending FlightAware UK
02:30AM 52.8250 4.1710 299° West 379 436 13,900 3,540 Climbing FlightAware
02:31AM 52.8830 4.0680 313° West 383 441 15,500 840 Climbing FlightAware
02:31AM 52.9352 3.9752 313° West 400 460 15,200 1,860 Descending FlightAware UK
02:31AM 52.9410 3.9650 313° West 389 448 16,900 3,780 Climbing FlightAware
02:32AM 52.9750 3.8600 298° West 382 440 18,200 1,800 Climbing FlightAware
02:33AM 52.9990 3.7530 290° West 386 444 19,300  Climbing FlightAware
02:33AM 53.0105 3.7040 290° West 418 481 18,200 1,500 Descending FlightAware UK
02:33AM 53.0220 3.6550 290° West 390 449 20,200 1,500 Climbing FlightAware
02:34AM 53.0335 3.6034 290° West 424 488 19,100 -1,260 Descending FlightAware UK
02:34AM 53.0449 3.5527 291° West 426 490 19,500 4,320 Climbing FlightAware UK
02:34AM 53.0490 3.5360 291° West 395 455 21,200 2,700 Climbing FlightAware
02:35AM 53.0760 3.3810 286° West 400 460 22,300 1,320 Climbing FlightAware
02:36AM 53.0940 3.2610 284° West 405 466 23,200 1,200 Climbing FlightAware
02:36AM 53.1140 3.1290 284° West 409 471 24,000 -420 Climbing FlightAware
02:37AM 53.1228 3.0686 284° West 446 513 22,800 -1,620 Descending FlightAware UK
02:37AM 53.1311 3.0128 284° West 448 516 23,100 5,640 Climbing FlightAware UK
02:37AM 53.1310 3.0170 284° West 417 480 24,600 960 Climbing FlightAware
02:37AM 53.1420 2.9374 284° West 450 518 23,500 1,020 Descending FlightAware UK
02:38AM 53.1520 2.8700 284° West 422 486 25,400 1,140 Climbing FlightAware
02:38AM 53.1616 2.8041 284° West 456 525 24,300 -1,320 Descending FlightAware UK
02:38AM 53.1699 2.7475 284° West 458 527 24,600 4,560 Climbing FlightAware UK
02:38AM 53.1720 2.7360 284° West 425 489 26,200 960 Climbing FlightAware
02:39AM 53.1863 2.6328 284° West 460 529 25,200 1,020 Descending FlightAware UK
02:39AM 53.1910 2.6040 284° West 429 494 26,900 780 Climbing FlightAware
02:39AM 53.2029 2.5170 284° West 464 534 25,700 900 Descending FlightAware UK
02:40AM 53.2120 2.4740 284° West 436 502 27,500 960 Climbing FlightAware
02:40AM 53.2363 2.4104 284° West 466 536 26,300 -1,620 Descending FlightAware UK
02:40AM 53.2563 2.3581 303° West 470 541 26,500 4,320 Climbing FlightAware UK
02:40AM 53.2620 2.3430 303° West 443 510 28,100 2,520 Climbing FlightAware
02:41AM 53.3060 2.2260 302° West 448 516 28,500 -600 Climbing FlightAware
02:42AM 53.3421 2.1307 302° West 476 548 27,400 780 Descending FlightAware UK
02:42AM 53.3560 2.0960 302° West 450 518 29,100 960 Climbing FlightAware
02:42AM 53.3755 2.0419 302° West 474 545 27,900 900 Descending FlightAware UK
02:43AM 53.4000 1.9780 302° West 450 518 29,700 660 Climbing FlightAware
02:43AM 53.4223 1.9178 302° West 476 548 28,400 -1,680 Descending FlightAware UK
02:43AM 53.4424 1.8647 302° West 476 548 28,700 4,860 Climbing FlightAware UK
02:43AM 53.4440 1.8600 302° West 451 519 30,200 720 Climbing FlightAware
02:44AM 53.4690 1.7935 302° West 476 548 29,000 900 Descending FlightAware UK
02:44AM 53.4960 1.7220 302° West 450 518 30,900 720 Climbing FlightAware
02:44AM 53.5218 1.6517 302° West 474 545 29,600 660 Descending FlightAware UK
02:45AM 53.5330 1.6230 302° West 449 517 31,300 780 Climbing FlightAware
02:45AM 53.5548 1.5627 302° West 476 548 30,000 780 Descending FlightAware UK
02:45AM 53.5640 1.5390 302° West 447 514 31,700 960 Climbing FlightAware
02:45AM 53.5873 1.4745 302° West 474 545 30,500 -1,500 Descending FlightAware UK
02:46AM 53.6068 1.4216 302° West 472 543 30,800 3,720 Climbing FlightAware UK
02:46AM 53.6200 1.3850 302° West 444 511 32,500 780 Climbing FlightAware
02:46AM 53.6393 1.3332 302° West 470 541 31,200 -2,160 Descending FlightAware UK
02:46AM 53.6585 1.2805 302° West 470 541 31,300 5,040 Climbing FlightAware UK
02:46AM 53.6580 1.2830 302° West 444 511 32,800 300 Climbing FlightAware
02:47AM 53.6777 1.2281 302° West 470 541 31,400 -2,100 Descending FlightAware UK
02:47AM 53.6971 1.1748 302° West 472 543 31,600 3,840 Climbing FlightAware UK
02:47AM 53.7040 1.1560 302° West 447 514 33,200 600 Climbing FlightAware
02:48AM 53.7296 1.0854 302° West 474 545 31,900 720 Descending FlightAware UK
02:48AM 53.7480 1.0340 302° West 447 514 33,700 780 Climbing FlightAware
02:48AM 53.7683 0.9786 302° West 472 543 32,400 420 Descending FlightAware UK
02:49AM 53.7890 0.9230 302° West 443 510 34,000  Climbing FlightAware
02:49AM 53.8324 0.8007 302° West 472 543 32,400  Descending FlightAware UK
02:49AM 53.8390 0.7820 302° West 441 507 34,000  Climbing FlightAware
02:50AM 53.8638 0.7129 302° West 472 543 32,400  Descending FlightAware UK
02:50AM 53.8750 0.6830 301° West 444 511 34,000  Climbing FlightAware
02:50AM 53.8829 0.6596 301° West 472 543 32,400 -6,420 Descending FlightAware UK
02:50AM 53.8957 0.6240 301° West 472 543 32,400  Level FlightAware UK
02:51AM 53.9209 0.5530 301° West 474 545 32,400 2,700 Level FlightAware UK
02:51AM 53.9280 0.5330 301° West 446 513 34,000  Climbing FlightAware
02:51AM 53.9529 0.4625 301° West 474 545 32,400 -2,640 Descending FlightAware UK
02:51AM 53.9720 0.4092 301° West 474 545 32,400 4,560 Level FlightAware UK
02:51AM 53.9740 0.4040 301° West 447 514 34,000  Climbing FlightAware
02:52AM 53.9911 0.3550 301° West 474 545 32,400  Descending FlightAware UK
02:52AM 54.0150 0.2870 301° West 448 516 34,000  Climbing FlightAware
02:52AM 54.0433 0.2116 301° West 476 548 32,400  Descending FlightAware UK
02:53AM 54.0660 0.1580 301° West 448 516 34,000  Climbing FlightAware
02:53AM 54.1032 0.0753 301° West 476 548 32,400  Descending FlightAware UK
02:53AM 54.1180 0.0420 301° West 449 517 34,000  Climbing FlightAware
02:54AM 54.1406 -0.0084 301° West 474 545 32,400  Descending FlightAware UK
02:54AM 54.1640 -0.0630 301° West 446 513 34,000  Climbing FlightAware
02:54AM 54.1922 -0.1271 301° West 472 543 32,400  Descending FlightAware UK
02:55AM 54.2260 -0.2060 301° West 444 511 34,000  Climbing FlightAware
02:55AM 54.2649 -0.2962 301° West 470 541 32,400  Descending FlightAware UK
02:56AM 54.2750 -0.3210 301° West 447 514 34,000 1,800 Climbing FlightAware
02:56AM 54.3250 -0.4370 306° West 449 517 34,000 -1,620 Level FlightAware
02:57AM 54.3526 -0.5013 306° West 472 543 32,400  Descending FlightAware UK
02:57AM 54.3700 -0.5430 306° West 449 517 34,000  Climbing FlightAware
02:57AM 54.3967 -0.6050 306° West 470 541 32,400 -2,940 Descending FlightAware UK
02:58AM 54.4184 -0.6564 306° West 472 543 32,400 3,300 Level FlightAware UK
02:58AM 54.4280 -0.6780 306° West 451 519 34,000  Climbing FlightAware
02:58AM 54.4624 -0.7606 306° West 474 545 32,400  Descending FlightAware UK
02:58AM 54.4850 -0.8140 306° West 449 517 34,000  Climbing FlightAware
02:59AM 54.5136 -0.8821 306° West 474 545 32,400  Descending FlightAware UK
02:59AM 54.5340 -0.9320 306° West 448 516 34,000  Climbing FlightAware
02:59AM 54.5572 -0.9861 306° West 474 545 32,400 -2,760 Descending FlightAware UK
03:00AM 54.5787 -1.0376 306° West 472 543 32,400 3,660 Level FlightAware UK
03:00AM 54.5830 -1.0490 306° West 446 513 34,000  Climbing FlightAware
03:00AM 54.6074 -1.1071 306° West 470 541 32,400 -2,880 Descending FlightAware UK
03:00AM 54.6290 -1.1592 306° West 472 543 32,400 5,040 Level FlightAware UK
03:00AM 54.6230 -1.1450 306° West 447 514 34,000  Climbing FlightAware
03:01AM 54.6647 -1.2458 306° West 472 543 32,400  Descending FlightAware UK
03:01AM 54.6700 -1.2580 306° West 448 516 34,000  Climbing FlightAware
03:02AM 54.7082 -1.3505 306° West 472 543 32,400  Descending FlightAware UK
03:02AM 54.7360 -1.4190 306° West 447 514 34,000  Climbing FlightAware
03:02AM 54.7729 -1.5079 306° West 470 541 32,400  Descending FlightAware UK
03:03AM 54.7840 -1.5360 306° West 447 514 34,000  Climbing FlightAware
03:03AM 54.8085 -1.5955 306° West 472 543 32,400  Descending FlightAware UK
03:03AM 54.8310 -1.6520 306° West 447 514 34,000 1,380 Climbing FlightAware
03:04AM 54.8860 -1.7880 305° West 445 512 34,000 -1,440 Level FlightAware
03:04AM 54.9148 -1.8585 305° West 470 541 32,400  Descending FlightAware UK
03:05AM 54.9340 -1.9060 305° West 445 512 34,000  Climbing FlightAware
03:05AM 54.9569 -1.9632 305° West 468 539 32,400  Descending FlightAware UK
03:05AM 54.9790 -2.0170 305° West 446 513 34,000  Climbing FlightAware
03:06AM 55.0205 -2.1219 305° West 470 541 32,400  Descending FlightAware UK
03:06AM 55.0330 -2.1540 305° West 446 513 34,000  Climbing FlightAware
03:07AM 55.0767 -2.2631 305° West 472 543 32,400  Descending FlightAware UK
03:07AM 55.0780 -2.2670 305° West 444 511 34,000  Climbing FlightAware
03:07AM 55.1047 -2.3338 305° West 470 541 32,400 -2,640 Descending FlightAware UK
03:07AM 55.1200 -2.3910 295° West 468 539 32,400 3,660 Level FlightAware UK
03:08AM 55.1240 -2.4120 295° West 434 499 34,000  Climbing FlightAware
03:08AM 55.1363 -2.4694 295° West 468 539 32,400 -2,880 Descending FlightAware UK
03:08AM 55.1494 -2.5286 291° West 470 541 32,400 3,960 Level FlightAware UK
03:08AM 55.1530 -2.5420 291° West 437 503 34,000  Climbing FlightAware
03:09AM 55.1670 -2.6073 291° West 470 541 32,400  Descending FlightAware UK
03:09AM 55.1850 -2.6890 291° West 438 504 34,000  Climbing FlightAware
03:09AM 55.1969 -2.7455 291° West 472 543 32,400  Descending FlightAware UK
03:10AM 55.2130 -2.8220 291° West 438 504 34,000  Climbing FlightAware
03:10AM 55.2268 -2.8849 291° West 472 543 32,400  Descending FlightAware UK
03:10AM 55.2400 -2.9470 291° West 437 503 34,000  Climbing FlightAware
03:11AM 55.2565 -3.0238 291° West 470 541 32,400 -2,640 Descending FlightAware UK
03:11AM 55.2692 -3.0836 290° West 472 543 32,400 4,560 Level FlightAware UK
03:11AM 55.2700 -3.0850 290° West 437 503 34,000  Climbing FlightAware
03:11AM 55.2819 -3.1433 290° West 470 541 32,400 -2,940 Descending FlightAware UK
03:12AM 55.2945 -3.2031 290° West 470 541 32,400 3,180 Level FlightAware UK
03:12AM 55.3010 -3.2350 290° West 438 504 34,000  Climbing FlightAware
03:12AM 55.3156 -3.3032 290° West 470 541 32,400 -2,700 Descending FlightAware UK
03:12AM 55.3279 -3.3628 290° West 468 539 32,400 3,540 Level FlightAware UK
03:12AM 55.3320 -3.3840 290° West 439 505 34,000  Climbing FlightAware
03:13AM 55.3573 -3.5036 290° West 470 541 32,400  Descending FlightAware UK
03:13AM 55.3590 -3.5110 290° West 441 507 34,000  Climbing FlightAware
03:13AM 55.3742 -3.5844 290° West 470 541 32,400 -2,760 Descending FlightAware UK
03:14AM 55.3869 -3.6452 290° West 472 543 32,400 4,140 Level FlightAware UK
03:14AM 55.3900 -3.6600 290° West 445 512 34,000  Climbing FlightAware
03:14AM 55.4078 -3.7466 290° West 474 545 32,400  Descending FlightAware UK
03:15AM 55.4190 -3.8030 290° West 445 512 34,000  Climbing FlightAware
03:15AM 55.4327 -3.8694 290° West 474 545 32,400 -2,940 Descending FlightAware UK
03:15AM 55.4453 -3.9307 290° West 474 545 32,400 3,840 Level FlightAware UK
03:15AM 55.4470 -3.9360 290° West 444 511 34,000  Climbing FlightAware
03:16AM 55.4702 -4.0528 290° West 472 543 32,400  Descending FlightAware UK
03:16AM 55.4770 -4.0870 290° West 442 509 34,000  Climbing FlightAware
03:16AM 55.4989 -4.1950 290° West 472 543 32,400  Descending FlightAware UK
03:17AM 55.5040 -4.2190 290° West 443 510 34,000  Climbing FlightAware
03:17AM 55.5238 -4.3175 290° West 472 543 32,400  Descending FlightAware UK
03:17AM 55.5330 -4.3650 290° West 444 511 34,000  Climbing FlightAware
03:18AM 55.5483 -4.4406 290° West 474 545 32,400  Descending FlightAware UK
03:18AM 55.5560 -4.4810 289° West 445 512 34,000  Climbing FlightAware
03:18AM 55.5605 -4.5025 289° West 474 545 32,400 -5,100 Descending FlightAware UK
03:18AM 55.5727 -4.5644 289° West 472 543 32,400  Level FlightAware UK
03:19AM 55.5849 -4.6262 289° West 474 545 32,400 3,060 Level FlightAware UK
03:19AM 55.5890 -4.6470 289° West 445 512 34,000  Climbing FlightAware
03:19AM 55.6050 -4.7294 289° West 474 545 32,400 -2,760 Descending FlightAware UK
03:19AM 55.6172 -4.7913 289° West 474 545 32,400 5,280 Level FlightAware UK
03:19AM 55.6130 -4.7720 289° West 447 514 34,000  Climbing FlightAware
03:20AM 55.6294 -4.8534 289° West 474 545 32,400 -2,700 Descending FlightAware UK
03:20AM 55.6413 -4.9158 289° West 474 545 32,400 3,000 Level FlightAware UK
03:20AM 55.6460 -4.9390 289° West 448 516 34,000  Climbing FlightAware
03:20AM 55.6611 -5.0192 289° West 474 545 32,400  Descending FlightAware UK
03:21AM 55.6700 -5.0710 289° West 447 514 34,000  Climbing FlightAware
03:21AM 55.6832 -5.1448 289° West 474 545 32,400 -2,760 Descending FlightAware UK
03:21AM 55.6942 -5.2078 287° West 474 545 32,400 2,880 Level FlightAware UK
03:22AM 55.7000 -5.2400 287° West 447 514 34,000  Climbing FlightAware
03:22AM 55.7128 -5.3126 287° West 474 545 32,400 -2,940 Descending FlightAware UK
03:22AM 55.7241 -5.3755 288° West 472 543 32,400 4,800 Level FlightAware UK
03:22AM 55.7220 -5.3660 288° West 447 514 34,000  Climbing FlightAware
03:22AM 55.7353 -5.4384 288° West 474 545 32,400 -2,880 Descending FlightAware UK
03:23AM 55.7463 -5.5014 287° West 472 543 32,400 2,820 Level FlightAware UK
03:23AM 55.7510 -5.5310 287° West 447 514 34,000  Climbing FlightAware
03:23AM 55.7683 -5.6275 287° West 472 543 32,400  Descending FlightAware UK
03:24AM 55.7770 -5.6800 287° West 447 514 34,000 120 Climbing FlightAware
03:24AM 55.7902 -5.7539 287° West 472 543 32,500 -2,160 Descending FlightAware UK
03:24AM 55.8012 -5.8172 287° West 470 541 32,800 780 Climbing FlightAware UK
03:25AM 55.8120 -5.8804 287° West 468 539 33,000 4,800 Climbing FlightAware UK
03:25AM 55.8110 -5.8740 287° West 447 514 34,500 300 Climbing FlightAware
03:25AM 55.8230 -5.9436 287° West 470 541 33,100 -2,220 Descending FlightAware UK
03:25AM 55.8338 -6.0069 287° West 468 539 33,300 3,600 Climbing FlightAware UK
03:25AM 55.8370 -6.0250 287° West 449 517 34,900 180 Climbing FlightAware
03:26AM 55.8519 -6.1129 287° West 470 541 33,400 -2,220 Descending FlightAware UK
03:26AM 55.8628 -6.1775 287° West 472 543 33,600 4,620 Climbing FlightAware UK
03:26AM 55.8620 -6.1740 287° West 454 522 35,100 240 Climbing FlightAware
03:26AM 55.8773 -6.2630 287° West 470 541 33,700 -1,920 Descending FlightAware UK
03:27AM 55.8882 -6.3277 287° West 472 543 33,900 5,100 Climbing FlightAware UK
03:27AM 55.8860 -6.3180 287° West 457 526 35,400 300 Climbing FlightAware
03:27AM 55.8990 -6.3925 287° West 472 543 34,000 -2,160 Descending FlightAware UK
03:27AM 55.9099 -6.4573 287° West 472 543 34,200 3,720 Climbing FlightAware UK
03:27AM 55.9130 -6.4770 287° West 455 524 35,800 360 Climbing FlightAware
03:28AM 55.9279 -6.5650 287° West 472 543 34,400 -2,280 Descending FlightAware UK
03:28AM 55.9385 -6.6297 286° West 472 543 34,400 4,560 Level FlightAware UK
03:28AM 55.9370 -6.6220 286° West 454 522 36,000  Climbing FlightAware
03:28AM 55.9491 -6.6944 286° West 470 541 34,400 -2,940 Descending FlightAware UK
03:29AM 55.9597 -6.7589 286° West 470 541 34,400  Level FlightAware UK
03:29AM 55.9702 -6.8233 286° West 470 541 34,400 4,320 Level FlightAware UK
03:29AM 55.9700 -6.8200 286° West 453 521 36,000  Climbing FlightAware
03:29AM 55.9843 -6.9094 286° West 472 543 34,400 -2,580 Descending FlightAware UK
03:30AM 55.9948 -6.9739 286° West 470 541 34,400 3,840 Level FlightAware UK
03:30AM 55.9970 -6.9860 286° West 452 520 36,000  Climbing FlightAware
03:30AM 56.0086 -7.0599 286° West 472 543 34,400 -2,760 Descending FlightAware UK
03:30AM 56.0191 -7.1244 286° West 472 543 34,400 4,140 Level FlightAware UK
03:30AM 56.0190 -7.1280 286° West 453 521 36,000  Climbing FlightAware
03:31AM 56.0328 -7.2107 286° West 472 543 34,400 -2,640 Descending FlightAware UK
03:31AM 56.0431 -7.2755 286° West 474 545 34,400 4,560 Level FlightAware UK
03:31AM 56.0420 -7.2710 286° West 453 521 36,000  Climbing FlightAware
03:31AM 56.0534 -7.3403 286° West 472 543 34,400 -2,940 Descending FlightAware UK
03:32AM 56.0637 -7.4051 286° West 474 545 34,400 3,180 Level FlightAware UK
03:32AM 56.0680 -7.4350 286° West 452 520 36,000  Climbing FlightAware
03:32AM 56.0805 -7.5124 286° West 474 545 34,400 -2,700 Descending FlightAware UK
03:32AM 56.0905 -7.5771 286° West 472 543 34,400 4,320 Level FlightAware UK
03:32AM 56.0890 -7.5670 286° West 451 519 36,000  Climbing FlightAware
03:33AM 56.1040 -7.6632 286° West 472 543 34,400 -2,580 Descending FlightAware UK
03:33AM 56.1141 -7.7277 286° West 470 541 34,400 4,800 Level FlightAware UK
03:33AM 56.1100 -7.7060 286° West 451 519 36,000  Climbing FlightAware
03:33AM 56.1240 -7.7924 286° West 470 541 34,400 -2,880 Descending FlightAware UK
03:34AM 56.1339 -7.8572 285° West 470 541 34,400 3,300 Level FlightAware UK
03:34AM 56.1370 -7.8810 285° West 453 521 36,000  Climbing FlightAware
03:34AM 56.1504 -7.9655 285° West 470 541 34,400 -2,640 Descending FlightAware UK
03:35AM 56.1603 -8.0306 285° West 470 541 34,400 4,560 Level FlightAware UK
03:35AM 56.1600 -8.0290 285° West 453 521 36,000  Climbing FlightAware
03:35AM 56.1702 -8.0959 285° West 472 543 34,400 -2,940 Descending FlightAware UK
03:35AM 56.1801 -8.1613 285° West 472 543 34,400 3,180 Level FlightAware UK
03:35AM 56.1850 -8.1930 285° West 455 524 36,000  Climbing FlightAware
03:36AM 56.1965 -8.2706 285° West 472 543 34,400 -2,700 Descending FlightAware UK
03:36AM 56.2064 -8.3362 285° West 472 543 34,400 4,320 Level FlightAware UK
03:36AM 56.2060 -8.3370 285° West 455 524 36,000  Climbing FlightAware
03:36AM 56.2193 -8.4239 285° West 472 543 34,400 -2,580 Descending FlightAware UK
03:37AM 56.2289 -8.4895 285° West 472 543 34,400 3,840 Level FlightAware UK
03:37AM 56.2300 -8.5010 285° West 454 522 36,000  Climbing FlightAware
03:37AM 56.2418 -8.5770 285° West 472 543 34,400 -2,760 Descending FlightAware UK
03:37AM 56.2514 -8.6426 285° West 468 539 34,400 4,140 Level FlightAware UK
03:37AM 56.2500 -8.6360 285° West 453 521 36,000  Climbing FlightAware
03:38AM 56.2642 -8.7300 285° West 468 539 34,400 -2,640 Descending FlightAware UK
03:38AM 56.2738 -8.7956 285° West 468 539 34,400 4,560 Level FlightAware UK
03:38AM 56.2730 -8.7910 285° West 455 524 36,000  Climbing FlightAware
03:38AM 56.2832 -8.8606 285° West 468 539 34,400 -2,940 Descending FlightAware UK
03:39AM 56.2928 -8.9265 285° West 470 541 34,400 3,180 Level FlightAware UK
03:39AM 56.2970 -8.9580 285° West 457 526 36,000 1,800 Climbing FlightAware
03:39AM 56.3180 -9.1070 284° West 458 527 36,000  Level FlightAware
03:40AM 56.3420 -9.2760 284° West 457 526 36,000  Level FlightAware
03:41AM 56.3620 -9.4170 284° West 458 527 36,000  Level FlightAware
03:42AM 56.3840 -9.5750 284° West 459 528 36,000  Level FlightAware
03:42AM 56.4060 -9.7410 284° West 457 526 36,000  Level FlightAware
03:43AM 56.4270 -9.8910 284° West 458 527 36,000  Level FlightAware
03:44AM 56.4460 -10.0380 283° West 457 526 36,000  Level FlightAware
03:44AM 56.4680 -10.2040 284° West 458 527 36,000  Level FlightAware
03:45AM 56.4880 -10.3550 284° West 460 529 36,000  Level FlightAware
03:46AM 56.5080 -10.5040 284° West 460 529 36,000  Level FlightAware
03:46AM 56.5270 -10.6560 283° West 459 528 36,000  Level FlightAware
03:47AM 56.5460 -10.8060 283° West 458 527 36,000  Level FlightAware
03:48AM 56.5650 -10.9540 283° West 457 526 36,000  Level FlightAware
03:48AM 56.5850 -11.1170 283° West 454 522 36,000  Level FlightAware
03:49AM 56.6020 -11.2530 283° West 453 521 36,000  Level FlightAware
03:50AM 56.6210 -11.4130 282° West 453 521 36,000  Level FlightAware
03:51AM 56.6360 -11.5390 282° West 453 521 36,000  Level FlightAware
03:51AM 56.6500 -11.6660 281° West 453 521 36,000  Level FlightAware
03:52AM 56.6650 -11.7930 282° West 453 521 36,000  Level FlightAware
03:53AM 56.6800 -11.9200 282° West 453 521 36,000  Level FlightAware
03:53AM 56.6990 -12.0850 282° West 453 521 36,000  Level FlightAware
03:54AM 56.7110 -12.1900 282° West 453 521 36,000  Level FlightAware
03:55AM 56.7260 -12.3170 282° West 453 521 36,000  Level FlightAware
03:55AM 56.7440 -12.4760 282° West 453 521 36,000  Level FlightAware
03:56AM 56.7590 -12.6030 282° West 453 521 36,000  Level FlightAware
03:57AM 56.7740 -12.7300 282° West 453 521 36,000  Level FlightAware
03:57AM 56.7890 -12.8570 282° West 453 521 36,000  Level FlightAware
03:58AM 56.8040 -12.9840 282° West 453 521 36,000  Level FlightAware
03:59AM 56.8220 -13.1440 282° West 453 521 36,000  Level FlightAware
04:02AM 56.8826 -13.6421 283° West  Level Estimated
04:03AM 56.9060 -13.8391 282° West  Level Estimated
04:04AM 56.9291 -14.0364 282° West  Level Estimated
04:05AM 56.9518 -14.2339 282° West  Level Estimated
04:06AM 56.9743 -14.4317 282° West  Level Estimated
04:07AM 56.9964 -14.6297 282° West  Level Estimated
04:08AM 57.0182 -14.8280 282° West  Level Estimated
04:09AM 57.0397 -15.0265 281° West  Level Estimated
04:10AM 57.0610 -15.2252 281° West  Level Estimated
04:11AM 57.0818 -15.4241 281° West  Level Estimated
04:12AM 57.1024 -15.6233 281° West  Level Estimated
04:13AM 57.1227 -15.8226 281° West  Level Estimated
04:14AM 57.1426 -16.0222 281° West  Level Estimated
04:15AM 57.1622 -16.2220 280° West  Level Estimated
04:16AM 57.1815 -16.4220 280° West  Level Estimated
04:17AM 57.2005 -16.6222 280° West  Level Estimated
04:18AM 57.2191 -16.8227 280° West  Level Estimated
04:19AM 57.2375 -17.0233 280° West  Level Estimated
04:20AM 57.2555 -17.2241 280° West  Level Estimated
04:21AM 57.2732 -17.4251 279° West  Level Estimated
04:22AM 57.2906 -17.6263 279° West  Level Estimated
04:23AM 57.3076 -17.8277 279° West  Level Estimated
04:24AM 57.3244 -18.0293 279° West  Level Estimated
04:25AM 57.3408 -18.2311 279° West  Level Estimated
04:26AM 57.3569 -18.4330 278° West  Level Estimated
04:27AM 57.3727 -18.6352 278° West  Level Estimated
04:28AM 57.3881 -18.8374 278° West  Level Estimated
04:29AM 57.4032 -19.0399 278° West  Level Estimated
04:30AM 57.4192 -19.2589 278° West  Level Estimated
04:31AM 57.4348 -19.4781 278° West  Level Estimated
04:31AM 58.0000 -20.0000 274° West 433 498 36,000  Level ETMS Enhanced Traffic Management System
04:32AM 57.4500 -19.6975 277° West  Level Estimated
04:33AM 57.4648 -19.9171 277° West  Level Estimated
04:34AM 57.4793 -20.1368 277° West  Level Estimated
04:35AM 57.4934 -20.3568 277° West  Level Estimated
04:36AM 57.5070 -20.5768 277° West  Level Estimated
04:37AM 58.0524 -21.5876 273° West 433 498 36,000  Level FlightAware Transoceanic
04:38AM 58.0583 -21.8147 273° West 433 498 36,000  Level FlightAware Transoceanic
04:39AM 58.0638 -22.0419 273° West 433 498 36,000  Level FlightAware Transoceanic
04:40AM 58.0689 -22.2692 272° West 433 498 36,000  Level FlightAware Transoceanic
04:41AM 58.0735 -22.4966 272° West 433 498 36,000  Level FlightAware Transoceanic
04:42AM 58.0778 -22.7240 272° West 433 498 36,000  Level FlightAware Transoceanic
04:43AM 58.0816 -22.9514 272° West 433 498 36,000  Level FlightAware Transoceanic
04:44AM 58.0851 -23.1789 272° West 433 498 36,000  Level FlightAware Transoceanic
04:45AM 58.0881 -23.4065 271° West 433 498 36,000  Level FlightAware Transoceanic
04:46AM 58.0908 -23.6341 271° West 433 498 36,000  Level FlightAware Transoceanic
04:47AM 58.0930 -23.8617 271° West 433 498 36,000  Level FlightAware Transoceanic
04:48AM 58.0948 -24.0893 271° West 433 498 36,000  Level FlightAware Transoceanic
04:49AM 58.0963 -24.3170 271° West 433 498 36,000  Level FlightAware Transoceanic
04:50AM 58.0973 -24.5446 270° West 433 498 36,000  Level FlightAware Transoceanic
04:51AM 58.0979 -24.7723 270° West 433 498 36,000  Level FlightAware Transoceanic
04:52AM 58.0981 -25.0000 270° West 433 498 36,000  Level FlightAware Transoceanic
04:53AM 58.0979 -25.2277 270° West 433 498 36,000  Level FlightAware Transoceanic
04:54AM 58.0973 -25.4554 270° West 433 498 36,000  Level FlightAware Transoceanic
04:55AM 58.0963 -25.6830 269° West 433 498 36,000  Level FlightAware Transoceanic
04:56AM 58.0948 -25.9107 269° West 433 498 36,000  Level FlightAware Transoceanic
04:57AM 58.0930 -26.1383 269° West 433 498 36,000  Level FlightAware Transoceanic
04:58AM 58.0908 -26.3659 269° West 433 498 36,000  Level FlightAware Transoceanic
04:59AM 58.0881 -26.5935 269° West 433 498 36,000  Level FlightAware Transoceanic
05:00AM 58.0851 -26.8211 268° West 433 498 36,000  Level FlightAware Transoceanic
05:01AM 58.0816 -27.0486 268° West 433 498 36,000  Level FlightAware Transoceanic
05:02AM 58.0778 -27.2760 268° West 433 498 36,000  Level FlightAware Transoceanic
05:03AM 58.0735 -27.5034 268° West 433 498 36,000  Level FlightAware Transoceanic
05:04AM 58.0689 -27.7308 268° West 433 498 36,000  Level FlightAware Transoceanic
05:05AM 58.0638 -27.9581 267° West 433 498 36,000  Level FlightAware Transoceanic
05:06AM 58.0583 -28.1853 267° West 433 498 36,000  Level FlightAware Transoceanic
05:07AM 58.0524 -28.4124 267° West 433 498 36,000  Level FlightAware Transoceanic
05:08AM 58.0462 -28.6395 267° West 433 498 36,000  Level FlightAware Transoceanic
05:09AM 58.0395 -28.8665 267° West 433 498 36,000  Level FlightAware Transoceanic
05:10AM 58.0324 -29.0934 267° West 433 498 36,000  Level FlightAware Transoceanic
05:11AM 58.0249 -29.3202 266° West 433 498 36,000  Level FlightAware Transoceanic
05:12AM 58.0170 -29.5469 266° West 433 498 36,000  Level FlightAware Transoceanic
05:13AM 58.0087 -29.7735 266° West 433 498 36,000  Level FlightAware Transoceanic
05:14AM 58.0001 -29.9976 266° West  Level FlightAware Approximate
05:15AM 57.9907 -30.2215 266° West  Level FlightAware Approximate
05:16AM 58.0084 -30.2192 274° West  Level FlightAware Approximate
05:17AM 58.0167 -30.4434 274° West  Level FlightAware Approximate
05:18AM 58.0245 -30.6677 274° West  Level FlightAware Approximate
05:19AM 58.0319 -30.8921 274° West  Level FlightAware Approximate
05:20AM 58.0390 -31.1166 273° West  Level FlightAware Approximate
05:21AM 58.0456 -31.3411 273° West  Level FlightAware Approximate
05:22AM 58.0519 -31.5657 273° West  Level FlightAware Approximate
05:23AM 58.0577 -31.7904 273° West  Level FlightAware Approximate
05:24AM 58.0632 -32.0152 273° West  Level FlightAware Approximate
05:25AM 58.0682 -32.2401 273° West  Level FlightAware Approximate
05:26AM 58.0729 -32.4650 272° West  Level FlightAware Approximate
05:27AM 58.0772 -32.6899 272° West  Level FlightAware Approximate
05:28AM 58.0811 -32.9150 272° West  Level FlightAware Approximate
05:29AM 58.0845 -33.1400 272° West  Level FlightAware Approximate
05:30AM 58.0876 -33.3651 272° West  Level FlightAware Approximate
05:31AM 58.0903 -33.5903 271° West  Level FlightAware Approximate
05:32AM 58.0926 -33.8154 271° West  Level FlightAware Approximate
05:33AM 58.0945 -34.0406 271° West  Level FlightAware Approximate
05:34AM 58.0960 -34.2659 271° West  Level FlightAware Approximate
05:35AM 58.0971 -34.4911 271° West  Level FlightAware Approximate
05:36AM 58.0978 -34.7164 270° West  Level FlightAware Approximate
05:37AM 58.0981 -34.9416 270° West  Level FlightAware Approximate
05:38AM 58.0980 -35.1669 270° West  Level FlightAware Approximate
05:39AM 58.0975 -35.3921 270° West  Level FlightAware Approximate
05:40AM 58.0966 -35.6174 270° West  Level FlightAware Approximate
05:41AM 58.0953 -35.8426 269° West  Level FlightAware Approximate
05:42AM 58.0936 -36.0678 269° West  Level FlightAware Approximate
05:43AM 58.0915 -36.2930 269° West  Level FlightAware Approximate
05:44AM 58.0891 -36.5181 269° West  Level FlightAware Approximate
05:45AM 58.0862 -36.7433 269° West  Level FlightAware Approximate
05:46AM 58.0829 -36.9683 269° West  Level FlightAware Approximate
05:47AM 58.0792 -37.1934 268° West  Level FlightAware Approximate
05:48AM 58.0752 -37.4184 268° West  Level FlightAware Approximate
05:49AM 58.0707 -37.6433 268° West  Level FlightAware Approximate
05:50AM 58.0658 -37.8682 268° West  Level FlightAware Approximate
05:50AM 58.0833 -36.9167 267° West 420 483 36,000  Level Gander Center
05:51AM 58.0606 -38.0930 268° West  Level FlightAware Approximate
05:51AM 58.0833 -37.1500 270° West 430 495 36,000  Level Gander Center
05:52AM 58.0550 -38.3178 267° West  Level FlightAware Approximate
05:52AM 58.0833 -37.3500 270° West 430 495 36,000  Level Gander Center
05:53AM 58.0489 -38.5424 267° West  Level FlightAware Approximate
05:53AM 58.0667 -37.5833 262° West 430 495 36,000  Level Gander Center
05:54AM 58.0425 -38.7670 267° West  Level FlightAware Approximate
05:54AM 58.0667 -37.8167 270° West 430 495 36,000  Level Gander Center
05:55AM 58.0356 -38.9915 267° West  Level FlightAware Approximate
05:55AM 58.0667 -38.0167 270° West 430 495 36,000  Level Gander Center
05:56AM 58.0667 -38.2500 270° West 430 495 36,000  Level Gander Center
05:57AM 58.0500 -38.4500 261° West 430 495 36,000  Level Gander Center
05:58AM 58.0500 -38.6833 270° West 430 495 36,000  Level Gander Center
05:59AM 58.0500 -38.9167 270° West 430 495 36,000  Level Gander Center
06:00AM 58.0333 -39.1167 261° West 430 495 36,000  Level Gander Center
06:01AM 58.0167 -39.3500 262° West 430 495 36,000  Level Gander Center
06:02AM 58.0167 -39.5833 270° West 430 495 36,000  Level Gander Center
06:03AM 58.0167 -39.8167 270° West 430 495 36,000  Level Gander Center
06:04AM 58.0167 -40.0500 270° West 440 506 36,000  Level Gander Center
06:05AM 58.0167 -40.2667 270° West 440 506 36,000  Level Gander Center
06:06AM 58.0333 -40.4833 278° West 440 506 36,000  Level Gander Center
06:07AM 58.0333 -40.7167 270° West 440 506 36,000  Level Gander Center
06:08AM 58.0333 -40.9500 270° West 430 495 36,000  Level Gander Center
06:09AM 58.0500 -41.1667 278° West 440 506 36,000  Level Gander Center
06:10AM 58.0667 -41.3833 278° West 440 506 36,000  Level Gander Center
06:11AM 58.0667 -41.6167 270° West 440 506 36,000  Level Gander Center
06:12AM 58.0833 -41.8333 278° West 440 506 36,000  Level Gander Center
06:13AM 58.0833 -42.0667 270° West 430 495 36,000  Level Gander Center
06:14AM 58.0833 -42.2833 270° West 440 506 36,000  Level Gander Center
06:15AM 58.0833 -42.5167 270° West 440 506 36,000  Level Gander Center
06:16AM 58.1000 -42.7667 277° West 440 506 36,000  Level Gander Center
06:17AM 58.0833 -43.0000 262° West 440 506 36,000  Level Gander Center
06:18AM 58.1000 -43.2167 278° West 440 506 36,000  Level Gander Center
06:19AM 58.1000 -43.4333 270° West 440 506 36,000  Level Gander Center
06:20AM 58.1000 -43.6667 270° West 440 506 36,000  Level Gander Center
06:21AM 58.1167 -43.8833 278° West 440 506 36,000  Level Gander Center
06:22AM 58.1167 -44.1167 270° West 440 506 36,000  Level Gander Center
06:23AM 58.1167 -44.3833 270° West 440 506 36,000  Level Gander Center
06:24AM 58.1167 -44.6000 270° West 440 506 36,000  Level Gander Center
06:25AM 58.1167 -44.8167 270° West 440 506 36,000  Level Gander Center
06:26AM 58.1167 -45.0500 270° West 440 506 36,000  Level Gander Center
06:27AM 58.1000 -45.2833 262° West 440 506 36,000  Level Gander Center
06:28AM 58.1167 -45.5333 277° West 450 518 36,000  Level Gander Center
06:29AM 58.1167 -45.7667 270° West 450 518 36,000  Level Gander Center
06:30AM 58.1000 -45.9833 262° West 450 518 36,000  Level Gander Center
06:31AM 58.1167 -46.2000 278° West 450 518 36,000  Level Gander Center
06:32AM 58.1167 -46.4667 270° West 450 518 36,000  Level Gander Center
06:33AM 58.1000 -46.7000 262° West 450 518 36,000  Level Gander Center
06:34AM 58.1000 -46.9167 270° West 450 518 36,000  Level Gander Center
06:35AM 58.1000 -47.1500 270° West 450 518 36,000  Level Gander Center
06:36AM 58.1000 -47.4000 270° West 450 518 36,000  Level Gander Center
06:37AM 58.0833 -47.6333 262° West 450 518 36,000  Level Gander Center
06:38AM 58.0667 -47.8500 262° West 450 518 36,000  Level Gander Center
06:39AM 58.0833 -48.1167 277° West 450 518 36,000  Level Gander Center
06:40AM 58.0667 -48.3333 262° West 450 518 36,000  Level Gander Center
06:41AM 58.0667 -48.5667 270° West 450 518 36,000  Level Gander Center
06:42AM 58.0500 -48.8000 262° West 450 518 36,000  Level Gander Center
06:43AM 58.0500 -49.0500 270° West 450 518 36,000  Level Gander Center
06:44AM 58.0500 -49.2667 270° West 450 518 36,000  Level Gander Center
06:45AM 58.0333 -49.5000 262° West 450 518 36,000  Level Gander Center
06:46AM 58.0167 -49.7500 263° West 450 518 36,000  Level Gander Center
06:47AM 58.0000 -49.9833 262° West 450 518 36,000  Level Gander Center
06:48AM 57.9667 -50.2167 255° West 450 518 36,000  Level Gander Center
06:49AM 57.9167 -50.4167 245° Southwest 450 518 36,000  Level Gander Center
06:50AM 57.9000 -50.6500 262° West 450 518 36,000  Level Gander Center
06:51AM 57.8667 -50.8833 255° West 450 518 36,000  Level Gander Center
06:52AM 57.8167 -51.1167 248° West 450 518 36,000  Level Gander Center
06:53AM 57.7833 -51.3167 253° West 450 518 36,000  Level Gander Center
06:54AM 57.7333 -51.5500 248° West 450 518 36,000  Level Gander Center
06:55AM 57.7000 -51.7833 255° West 460 529 36,000  Level Gander Center
06:56AM 57.6500 -52.0167 248° West 460 529 36,000  Level Gander Center
06:57AM 57.6000 -52.2000 243° Southwest 460 529 36,000  Level Gander Center
06:59AM 57.5550 -52.5959 258° West  Level FlightAware Approximate
07:04AM 57.2833 -53.8667 256° West 460 529 36,000  Level Gander Center
07:05AM 57.2333 -54.0833 247° West 460 529 36,000  Level Gander Center
07:06AM 57.3721 -54.0981 258° West  Level FlightAware Approximate
07:06AM 57.1833 -54.3167 249° West 460 529 36,000  Level Gander Center
07:07AM 57.3445 -54.3115 257° West  Level FlightAware Approximate
07:07AM 57.1500 -54.5333 254° West 460 529 36,000  Level Gander Center
07:08AM 57.3166 -54.5245 256° West  Level FlightAware Approximate
07:08AM 57.0833 -54.7333 239° Southwest 460 529 36,000  Level Gander Center
07:09AM 57.2882 -54.7373 256° West  Level FlightAware Approximate
07:09AM 57.0500 -54.9500 254° West 470 541 36,000  Level Gander Center
07:10AM 57.0000 -55.1500 245° Southwest 470 541 36,000 60 Level Gander Center
07:11AM 56.9500 -55.4000 250° West 470 541 36,200 660 Climbing Gander Center
07:12AM 56.9167 -55.6167 254° West 450 518 37,400 840 Climbing Gander Center
07:13AM 56.8667 -55.8500 249° West 460 529 37,900 300 Climbing Gander Center
07:14AM 56.8333 -56.0667 254° West 460 529 38,000  Climbing Gander Center
07:15AM 56.7833 -56.3167 250° West 460 529 38,000  Level Gander Center
07:16AM 56.7500 -56.5333 254° West 470 541 38,000  Level Gander Center
07:17AM 56.7000 -56.7500 247° West 480 552 38,000  Level Gander Center
07:18AM 56.6500 -57.0000 250° West 480 552 38,000  Level Gander Center
07:19AM 56.6000 -57.2167 247° West 480 552 38,000  Level Gander Center
07:20AM 56.5667 -57.4667 256° West 470 541 38,000  Level Gander Center
07:21AM 56.5167 -57.6500 244° Southwest 470 541 38,000  Level Gander Center
07:22AM 56.4667 -57.8667 247° West 470 541 38,000  Level Gander Center
07:23AM 56.4333 -58.1167 257° West 470 541 38,000  Level Gander Center
07:24AM 56.3833 -58.3333 247° West 470 541 38,000  Level Gander Center
07:25AM 56.3333 -58.5333 246° West 480 552 38,000  Level Gander Center
07:26AM 56.3000 -58.7833 257° West 480 552 38,000  Level Gander Center
07:27AM 56.2667 -58.9000 243° Southwest 480 552 38,000  Level Gander Center
07:28AM 56.2167 -59.1167 248° West 470 541 38,000  Level Gander Center
07:28AM 56.2000 -59.2167 253° West 470 541 38,000  Level Gander Center
07:29AM 56.1500 -59.4500 249° West 470 541 38,000  Level Gander Center
07:30AM 56.1167 -59.6667 255° West 480 552 38,000  Level Gander Center
07:31AM 56.0500 -59.9000 243° Southwest 480 552 38,000  Level Gander Center
07:32AM 56.0000 -60.1167 248° West 480 552 38,000  Level Gander Center
07:33AM 55.9500 -60.3333 248° West 480 552 38,000  Level Gander Center
07:34AM 55.9333 -60.4500 256° West 480 552 38,000  Level Gander Center
07:34AM 55.9000 -60.5667 243° Southwest 480 552 38,000  Level Gander Center
07:35AM 55.8500 -60.7833 248° West 480 552 38,000  Level Gander Center
07:36AM 55.8167 -60.9000 243° Southwest 480 552 38,000  Level Gander Center
07:37AM 55.7667 -61.1000 246° West 480 552 38,000  Level Gander Center
07:37AM 55.7500 -61.2000 254° West 480 552 38,000  Level Gander Center
07:38AM 55.7000 -61.4333 249° West 480 552 38,000  Level Gander Center
07:39AM 55.6333 -61.6333 239° Southwest 480 552 38,000  Level Gander Center
07:40AM 55.5833 -61.8667 249° West 480 552 38,000  Level Gander Center
07:41AM 55.5333 -62.0833 248° West 480 552 38,000  Level Gander Center
07:42AM 55.5000 -62.2000 243° Southwest 480 552 38,000  Level Gander Center
07:43AM 55.4500 -62.4000 246° West 480 552 38,000  Level Gander Center
07:43AM 55.4333 -62.5167 256° West 470 541 38,000  Level Gander Center
07:44AM 55.3833 -62.7167 246° West 480 552 38,000  Level Gander Center
07:45AM 55.3167 -62.9333 242° Southwest 480 552 38,000  Level Gander Center
07:46AM 55.2667 -63.1333 246° West 470 541 38,000  Level Gander Center
07:47AM 55.2000 -63.3667 243° Southwest 480 552 38,000  Level Gander Center
07:48AM 55.1500 -63.5667 246° West 480 552 38,000  Level Gander Center
07:49AM 55.1000 -63.8000 250° West 470 541 38,000  Level Gander Center
07:50AM 55.0333 -64.0000 240° Southwest 480 552 38,000  Level Gander Center
07:51AM 54.9833 -64.2000 247° West 470 541 38,000  Level Gander Center
07:52AM 54.9333 -64.4000 247° West 470 541 38,000  Level Gander Center
07:53AM 54.8667 -64.6000 240° Southwest 470 541 38,000  Level Gander Center
07:54AM 54.8500 -64.6333 229° Southwest 470 541 38,000  Level Montreal Center
07:55AM 54.7833 -64.8333 240° Southwest 460 529 38,000  Level Montreal Center
07:55AM 54.7667 -65.0167 261° West 470 541 38,000  Level Gander Center
07:56AM 54.7333 -65.0500 210° Southwest 470 541 38,000  Level Montreal Center
07:56AM 54.7000 -65.2167 251° West 470 541 38,000  Level Gander Center
07:57AM 54.6500 -65.4167 247° West 470 541 38,000  Level Gander Center
07:58AM 54.6167 -65.4667 221° Southwest 460 529 38,000  Level Montreal Center
07:58AM 54.5833 -65.6333 251° West 470 541 38,000  Level Gander Center
07:59AM 54.5333 -65.8333 247° West 470 541 38,000  Level Gander Center
08:00AM 54.4500 -66.0333 234° Southwest 470 541 38,000  Level Gander Center
08:01AM 54.4000 -66.2167 245° Southwest 470 541 38,000  Level Gander Center
08:02AM 54.3500 -66.4167 247° West 470 541 38,000  Level Gander Center
08:03AM 54.3333 -66.4500 229° Southwest 470 541 38,000  Level Montreal Center
08:04AM 54.2667 -66.6667 242° Southwest 470 541 38,000  Level Montreal Center
08:05AM 54.2167 -66.8833 249° West 470 541 38,000  Level Montreal Center
08:06AM 54.1333 -67.0667 232° Southwest 470 541 38,000  Level Montreal Center
08:07AM 54.0833 -67.2500 245° Southwest 470 541 38,000  Level Montreal Center
08:08AM 54.0167 -67.4667 242° Southwest 470 541 38,000  Level Montreal Center
08:09AM 53.9667 -67.6500 245° Southwest 460 529 38,000  Level Montreal Center
08:10AM 53.8667 -67.8167 225° Southwest 470 541 38,000  Level Montreal Center
08:10AM 53.8167 -67.9667 241° Southwest 470 541 38,000  Level Gander Center
08:11AM 53.7167 -68.1333 225° Southwest 470 541 38,000  Level Gander Center
08:12AM 53.6333 -68.2833 227° Southwest 470 541 38,000  Level Gander Center
08:13AM 53.5333 -68.4333 222° Southwest 470 541 38,000  Level Gander Center
08:14AM 53.4667 -68.5833 233° Southwest 470 541 38,000  Level Gander Center
08:15AM 53.3667 -68.7500 225° Southwest 470 541 38,000  Level Gander Center
08:16AM 53.2667 -68.9167 225° Southwest 470 541 38,000  Level Gander Center
08:17AM 53.2333 -68.9167 180° South 470 541 38,000  Level Montreal Center
08:18AM 53.1500 -69.0833 230° Southwest 460 529 38,000  Level Montreal Center
08:19AM 53.0667 -69.2333 227° Southwest 470 541 38,000  Level Montreal Center
08:20AM 52.9667 -69.3833 222° Southwest 460 529 38,000  Level Montreal Center
08:21AM 52.8833 -69.5667 233° Southwest 470 541 38,000  Level Montreal Center
08:22AM 52.7833 -69.7167 222° Southwest 460 529 38,000  Level Montreal Center
08:23AM 52.7000 -69.8833 231° Southwest 460 529 38,000  Level Montreal Center
08:24AM 52.6000 -70.0000 215° Southwest 460 529 38,000  Level Montreal Center
08:25AM 52.5167 -70.1500 228° Southwest 460 529 38,000  Level Montreal Center
08:25AM 52.4667 -70.2667 235° Southwest 460 529 38,000  Level Gander Center
08:26AM 52.3833 -70.4500 233° Southwest 450 518 38,000  Level Gander Center
08:27AM 52.3333 -70.4500 180° South 450 518 38,000  Level Montreal Center
08:27AM 52.2833 -70.6000 241° Southwest 450 518 38,000  Level Gander Center
08:28AM 52.1833 -70.7333 219° Southwest 450 518 38,000  Level Gander Center
08:29AM 52.1667 -70.7500 212° Southwest 450 518 38,000  Level Montreal Center
08:30AM 52.0667 -70.8667 216° Southwest 450 518 38,000  Level Montreal Center
08:31AM 51.9833 -71.0167 228° Southwest 450 518 38,000  Level Montreal Center
08:32AM 51.9000 -71.1667 228° Southwest 450 518 38,000  Level Montreal Center
08:33AM 51.8000 -71.3000 220° Southwest 450 518 38,000  Level Montreal Center
08:34AM 51.7167 -71.4500 228° Southwest 440 506 38,000  Level Montreal Center
08:35AM 51.6167 -71.6000 223° Southwest 440 506 38,000 -60 Level Montreal Center
08:36AM 51.5500 -71.7167 227° Southwest 440 506 37,900  Descending Montreal Center
08:37AM 51.4500 -71.8500 220° Southwest 440 506 38,000  Climbing Montreal Center
08:38AM 51.3500 -72.0000 223° Southwest 450 518 37,900  Descending Montreal Center
08:39AM 51.2500 -72.1500 223° Southwest 450 518 38,000  Climbing Montreal Center
08:40AM 51.1833 -72.2833 231° Southwest 450 518 38,000 -60 Level Montreal Center
08:41AM 51.0833 -72.4333 223° Southwest 440 506 37,900  Descending Montreal Center
08:42AM 51.0000 -72.5333 217° Southwest 430 495 38,000  Climbing Montreal Center
08:43AM 50.9000 -72.6833 223° Southwest 440 506 38,000 -60 Level Montreal Center
08:44AM 50.8167 -72.8167 225° Southwest 440 506 37,900  Descending Montreal Center
08:45AM 50.7167 -72.9333 216° Southwest 440 506 38,000  Climbing Montreal Center
08:46AM 50.6500 -73.0667 232° Southwest 420 483 37,900  Descending Montreal Center
08:47AM 50.5500 -73.2167 224° Southwest 430 495 38,000  Climbing Montreal Center
08:48AM 50.4500 -73.3500 220° Southwest 440 506 37,900  Descending Montreal Center
08:49AM 50.3667 -73.4667 222° Southwest 440 506 38,000  Climbing Montreal Center
08:50AM 50.2833 -73.6000 226° Southwest 410 472 37,900  Descending Montreal Center
08:51AM 50.2000 -73.7000 218° Southwest 410 472 38,000  Climbing Montreal Center
08:52AM 50.1167 -73.8333 226° Southwest 410 472 38,000 -60 Level Montreal Center
08:53AM 50.0167 -73.9500 217° Southwest 420 483 37,900 -60 Descending Montreal Center
08:54AM 49.9500 -74.0833 232° Southwest 420 483 37,900  Level Montreal Center
08:55AM 49.8667 -74.1833 218° Southwest 400 460 38,000  Climbing Montreal Center
08:56AM 49.7833 -74.3000 222° Southwest 380 437 38,000  Level Montreal Center
08:57AM 49.7167 -74.4000 224° Southwest 370 426 38,000  Level Montreal Center
08:58AM 49.6333 -74.5167 222° Southwest 370 426 38,000  Level Montreal Center
08:59AM 49.5500 -74.6167 218° Southwest 370 426 38,000  Level Montreal Center
09:00AM 49.4667 -74.7167 218° Southwest 370 426 38,000  Level Montreal Center
09:01AM 49.4000 -74.8333 229° Southwest 370 426 38,000  Level Montreal Center
09:02AM 49.3167 -74.9333 218° Southwest 370 426 38,000  Level Montreal Center
09:03AM 49.2500 -75.0333 224° Southwest 360 414 38,000  Level Montreal Center
09:04AM 49.1667 -75.1500 222° Southwest 360 414 38,000  Level Montreal Center
09:05AM 49.0833 -75.2500 218° Southwest 360 414 38,000  Level Montreal Center
09:06AM 49.0167 -75.3500 225° Southwest 360 414 38,000 -60 Level Montreal Center
09:07AM 48.9500 -75.4333 219° Southwest 360 414 37,900  Descending Montreal Center
09:08AM 48.8667 -75.5500 223° Southwest 360 414 38,000  Climbing Montreal Center
09:09AM 48.7833 -75.6333 213° Southwest 360 414 38,000  Level Montreal Center
09:10AM 48.7167 -75.7333 225° Southwest 370 426 38,000  Level Montreal Center
09:11AM 48.6333 -75.8333 218° Southwest 370 426 38,000 -60 Level Montreal Center
09:12AM 48.5500 -75.9333 218° Southwest 370 426 37,900 -600 Descending Montreal Center
09:13AM 48.4833 -76.0500 229° Southwest 370 426 36,900 -1,200 Descending Montreal Center
09:14AM 48.4000 -76.1500 219° Southwest 360 414 35,500 -1,440 Descending Montreal Center
09:15AM 48.3333 -76.2500 225° Southwest 340 391 34,100 -840 Descending Montreal Center
09:16AM 48.2667 -76.3167 214° Southwest 330 380 33,900 -60 Descending Montreal Center
09:17AM 48.1833 -76.4167 219° Southwest 340 391 34,000  Climbing Montreal Center
09:22AM 47.7710 -76.9560 219° Southwest 358 412 34,000  Level FlightAware
09:23AM 47.7130 -77.0250 219° Southwest 358 412 34,000  Level FlightAware
09:24AM 47.6690 -77.0780 219° Southwest 358 412 34,000  Level FlightAware
09:24AM 47.6140 -77.1440 219° Southwest 358 412 34,000  Level FlightAware
09:25AM 47.5710 -77.1960 219° Southwest 358 412 34,000  Level FlightAware
09:26AM 47.5270 -77.2490 219° Southwest 358 412 34,000  Level FlightAware
09:26AM 47.4830 -77.3010 219° Southwest 358 412 34,000  Level FlightAware
09:27AM 47.4390 -77.3540 219° Southwest 358 412 34,000  Level FlightAware
09:28AM 47.3850 -77.4190 219° Southwest 358 412 34,000  Level FlightAware
09:29AM 47.3410 -77.4720 219° Southwest 358 412 34,000  Level FlightAware
09:29AM 47.2970 -77.5240 219° Southwest 358 412 34,000  Level FlightAware
09:30AM 47.2530 -77.5760 219° Southwest 358 412 34,000  Level FlightAware
09:31AM 47.2100 -77.6280 219° Southwest 358 412 34,000  Level FlightAware
09:31AM 47.1550 -77.6930 219° Southwest 358 412 34,000  Level FlightAware
09:32AM 47.1110 -77.7450 219° Southwest 358 412 34,000  Level FlightAware
09:36AM 46.6570 -78.3000 220° Southwest 381 438 34,000  Level FlightAware
09:37AM 46.5870 -78.3820 219° Southwest 384 442 34,000  Level FlightAware
09:38AM 46.5120 -78.4700 219° Southwest 384 442 34,000  Level FlightAware
09:39AM 46.4580 -78.5330 219° Southwest 384 442 34,000  Level FlightAware
09:39AM 46.3970 -78.6040 219° Southwest 384 442 34,000  Level FlightAware
09:40AM 46.3380 -78.6720 219° Southwest 384 442 34,000  Level FlightAware
09:41AM 46.2820 -78.7370 219° Southwest 384 442 34,000  Level FlightAware
09:41AM 46.2200 -78.8080 218° Southwest 385 443 34,000  Level FlightAware
09:42AM 46.1580 -78.8790 218° Southwest 386 444 34,000  Level FlightAware
09:43AM 46.1000 -78.9460 219° Southwest 389 448 34,000  Level FlightAware
09:44AM 46.0450 -79.0080 218° Southwest 391 450 34,000  Level FlightAware
09:44AM 45.9810 -79.0820 219° Southwest 391 450 34,000  Level FlightAware
09:45AM 45.9240 -79.1450 218° Southwest 392 451 34,000  Level FlightAware
09:46AM 45.8580 -79.2200 218° Southwest 393 452 34,000  Level FlightAware
09:46AM 45.8010 -79.2850 218° Southwest 393 452 34,000  Level FlightAware
09:47AM 45.7450 -79.3480 218° Southwest 393 452 34,000  Level FlightAware
09:48AM 45.6940 -79.4050 218° Southwest 393 452 34,000 -120 Level FlightAware
09:48AM 45.6500 -79.4167 218° Southwest 390 449 33,900 -120 Descending Toronto Center
09:49AM 45.5667 -79.5167 220° Southwest 390 449 33,900  Level Toronto Center
09:50AM 45.4833 -79.6167 220° Southwest 400 460 33,900 -180 Level Toronto Center
09:51AM 45.4000 -79.7000 215° Southwest 400 460 33,600 -300 Descending Toronto Center
09:57AM 44.8740 -80.2570 215° Southwest 420 483 32,000 -300 Descending FlightAware
09:57AM 44.8333 -80.2667 215° Southwest 420 483 31,900 -120 Descending Toronto Center
09:58AM 44.7333 -80.3667 215° Southwest 420 483 31,900  Level Toronto Center
09:59AM 44.6333 -80.4500 211° Southwest 420 483 31,900  Level Toronto Center
10:00AM 44.5333 -80.5167 205° Southwest 420 483 31,900  Level Toronto Center
10:01AM 44.4333 -80.6167 216° Southwest 430 495 31,900  Level Toronto Center
10:02AM 44.3333 -80.7000 211° Southwest 430 495 31,900  Level Toronto Center
10:03AM 44.2333 -80.8000 216° Southwest 430 495 31,900 -60 Level Toronto Center
10:04AM 44.1167 -80.8833 207° Southwest 430 495 31,800 -600 Descending Toronto Center
10:05AM 44.0167 -80.9500 206° Southwest 420 483 30,800 -900 Descending Toronto Center
10:06AM 43.9333 -81.0500 221° Southwest 420 483 30,000 -480 Descending Toronto Center
10:07AM 43.8333 -81.1333 211° Southwest 410 472 29,900 -540 Descending Toronto Center
10:13AM 43.2570 -81.6350 211° Southwest 396 456 26,200 -780 Descending FlightAware
10:14AM 43.1920 -81.6880 211° Southwest 394 453 24,700 -2,040 Descending FlightAware
10:15AM 43.1230 -81.7450 211° Southwest 394 453 23,200 -1,500 Descending FlightAware
10:15AM 43.0600 -81.8120 218° Southwest 395 455 22,600 -840 Descending FlightAware
10:16AM 43.0210 -81.8650 225° Southwest 396 456 22,200 -660 Descending FlightAware
10:17AM 42.9520 -81.9580 225° Southwest 391 450 21,700 -780 Descending FlightAware
10:17AM 42.8940 -82.0360 225° Southwest 387 445 21,000 -1,080 Descending FlightAware
10:18AM 42.8510 -82.0920 224° Southwest 376 433 20,400 -1,440 Descending FlightAware
10:19AM 42.7890 -82.1750 225° Southwest 376 433 19,000 -1,680 Descending FlightAware
10:19AM 42.7430 -82.2370 225° Southwest 372 428 17,900 -1,980 Descending FlightAware
10:20AM 42.6960 -82.2980 224° Southwest 369 425 16,700 -1,920 Descending FlightAware
10:21AM 42.6380 -82.3760 225° Southwest 360 414 15,200 -1,920 Descending FlightAware
10:22AM 42.5880 -82.4420 224° Southwest 347 399 13,700 -2,040 Descending FlightAware
10:22AM 42.5390 -82.5060 224° Southwest 333 383 12,200 -1,140 Descending FlightAware
10:23AM 42.4980 -82.5600 224° Southwest 322 371 12,100 -120 Descending FlightAware
10:24AM 42.4620 -82.6070 224° Southwest 322 371 12,100  Level FlightAware
10:24AM 42.4250 -82.6550 224° Southwest 322 371 12,100 -120 Level FlightAware
10:25AM 42.4197 -82.7953 224° Southwest 327 376 12,000 -120 Descending FAA TRACON SMA TRACON (SMA)
10:25AM 42.4078 -82.8294 245° Southwest 327 376 12,000  Level FAA TRACON SMA TRACON (SMA)
10:26AM 42.3956 -82.8636 244° Southwest 327 376 12,000  Level FAA TRACON SMA TRACON (SMA)
10:26AM 42.3789 -82.9103 244° Southwest 329 379 12,000  Level FAA TRACON SMA TRACON (SMA)
10:26AM 42.3675 -82.9411 243° Southwest 331 381 12,000  Level FAA TRACON SMA TRACON (SMA)
10:27AM 42.3556 -82.9747 244° Southwest 326 375 12,000  Level FAA TRACON SMA TRACON (SMA)
10:27AM 42.3411 -83.0147 244° Southwest 312 359 12,000  Level FAA TRACON SMA TRACON (SMA)
10:27AM 42.3297 -83.0464 244° Southwest 307 353 12,000  Level FAA TRACON SMA TRACON (SMA)
10:28AM 42.3183 -83.0775 244° Southwest 304 350 12,000  Level FAA TRACON SMA TRACON (SMA)
10:28AM 42.3044 -83.1158 244° Southwest 295 339 12,000  Level FAA TRACON SMA TRACON (SMA)
10:28AM 42.2942 -83.1444 244° Southwest 283 326 12,000  Level FAA TRACON SMA TRACON (SMA)
10:29AM 42.2931 -83.1756 267° West 275 316 12,000  Level FAA TRACON SMA TRACON (SMA)
10:29AM 42.2958 -83.2172 275° West 286 329 12,000 -480 Level FAA TRACON SMA TRACON (SMA)
10:29AM 42.2983 -83.2561 275° West 290 334 11,700 -1,200 Descending FAA TRACON SMA TRACON (SMA)
10:30AM 42.3000 -83.2875 274° West 292 336 11,200 -1,080 Descending FAA TRACON SMA TRACON (SMA)
10:30AM 42.3028 -83.3269 275° West 298 343 11,000 -240 Descending FAA TRACON SMA TRACON (SMA)
10:31AM 42.2978 -83.4000 265° West 279 321 11,000  Level FAA TRACON SMA TRACON (SMA)
10:31AM 42.2800 -83.4194 219° Southwest 259 298 11,000 -180 Level FAA TRACON SMA TRACON (SMA)
10:31AM 42.2606 -83.4319 205° Southwest 256 295 10,900 -900 Descending FAA TRACON SMA TRACON (SMA)
10:32AM 42.2369 -83.4469 205° Southwest 248 285 10,400 -1,680 Descending FAA TRACON SMA TRACON (SMA)
10:32AM 42.2183 -83.4594 206° Southwest 243 280 9,800 -2,100 Descending FAA TRACON SMA TRACON (SMA)
10:32AM 42.1950 -83.4742 205° Southwest 244 281 9,000 -2,340 Descending FAA TRACON SMA TRACON (SMA)
10:33AM 42.1772 -83.4883 211° Southwest 237 273 8,300 -2,040 Descending FAA TRACON SMA TRACON (SMA)
10:33AM 42.1606 -83.5039 215° Southwest 229 264 7,700 -1,980 Descending FAA TRACON SMA TRACON (SMA)
10:33AM 42.1439 -83.5197 215° Southwest 237 273 7,000 -2,100 Descending FAA TRACON SMA TRACON (SMA)
10:34AM 42.1239 -83.5386 215° Southwest 229 264 6,300 -1,980 Descending FAA TRACON SMA TRACON (SMA)
10:34AM 42.1081 -83.5542 216° Southwest 227 261 5,700 -1,380 Descending FAA TRACON SMA TRACON (SMA)
10:34AM 42.0928 -83.5686 215° Southwest 223 257 5,400 -1,200 Descending FAA TRACON SMA TRACON (SMA)
10:35AM 42.0739 -83.5869 216° Southwest 219 252 4,900 -1,500 Descending FAA TRACON SMA TRACON (SMA)
10:35AM 42.0592 -83.6014 216° Southwest 213 245 4,400 -1,380 Descending FAA TRACON SMA TRACON (SMA)
10:35AM 42.0422 -83.6058 191° South 206 237 4,000 -780 Descending FAA TRACON SMA TRACON (SMA)
10:36AM 42.0267 -83.5872 138° Southeast 204 235 3,900 -600 Descending FAA TRACON SMA TRACON (SMA)
10:36AM 42.0275 -83.5650 87° East 197 227 3,600 -900 Descending FAA TRACON SMA TRACON (SMA)